Latest Weather Observations for Grafton Airport

IDN60801

Issued at 2:05 pm EDT Saturday 1 November 2014 (issued every 30 minutes, with the page automatically refreshed every 10 minutes)

About weather observations | Map of weather stations | Latest weather observations for NSW | Other Formats
Station Details ID: 058161 Name: GRAFTON AIRPORT AWS Lat: -29.76 Lon: 153.03 Height: 25.09 m
Data from the previous 72 hours. | See also: Recent months for locations in New South Wales
Date/Time
EDT
Temp
°C
App
Temp
°C
Dew
Point
Rel
Hum
%
Delta-T
°C
Wind Press
QNH
hPa
Press
MSL
hPa
Rain
since 9 am
mm
Dir
 
Spd
km/h
Gust
km/h
Spd
kts
Gust
kts
01/02:00pm 30.3 28.1 16.0 42 8.9 N 22 37 12 20 1008.0 1007.9 0.0
01/01:30pm 30.1 29.2 18.2 49 7.6 N 20 30 11 16 1008.7 1008.6 0.0
01/01:00pm 28.2 27.2 18.0 54 6.5 N 20 32 11 17 1009.6 1009.5 0.0
01/12:30pm 27.7 27.5 18.4 57 5.9 N 17 22 9 12 1010.4 1010.3 0.0
01/12:00pm 24.3 24.7 18.2 68 3.8 N 13 17 7 9 1011.3 1011.2 0.0
01/11:30am 24.9 25.8 17.6 64 4.6 NNW 9 17 5 9 1012.5 1012.4 0.0
01/11:00am 24.2 26.0 18.8 72 3.4 W 7 11 4 6 1013.2 1013.1 0.0
01/10:30am 23.1 24.7 18.2 74 3.1 W 7 11 4 6 1013.3 1013.2 0.0
01/10:00am 23.1 24.7 19.1 78 2.5 NW 9 17 5 9 1013.6 1013.5 0.0
01/09:30am 22.8 23.1 19.6 82 2.0 N 17 20 9 11 1013.0 1012.9 0.0
01/09:00am 21.9 21.9 18.9 83 1.9 NNE 17 20 9 11 1012.7 1012.6 -
01/08:30am 21.3 22.7 18.7 85 1.6 ENE 9 13 5 7 1013.0 1012.9 -
01/08:00am 20.3 22.1 18.4 89 1.2 NNW 6 9 3 5 1013.7 1013.6 -
01/07:30am 20.4 23.5 18.7 90 1.1 CALM 0 0 0 0 1013.1 1013.0 -
01/07:00am 20.2 23.1 18.1 88 1.3 CALM 0 0 0 0 1012.6 1012.5 -
01/06:30am 20.1 22.0 17.7 86 1.5 N 4 9 2 5 1012.3 1012.2 -
01/06:00am 20.3 23.0 17.7 85 1.6 CALM 0 0 0 0 1012.2 1012.1 -
01/05:30am 20.2 22.5 17.8 86 1.5 NNE 2 7 1 4 1012.3 1012.2 -
01/05:00am 19.8 22.0 17.4 86 1.5 N 2 7 1 4 1011.9 1011.8 -
01/04:30am 19.4 20.8 17.4 88 1.2 N 6 9 3 5 1011.6 1011.5 -
01/04:00am 19.6 22.1 17.2 86 1.5 CALM 0 4 0 2 1010.9 1010.8 -
01/03:30am 20.0 22.6 17.6 86 1.5 CALM 0 6 0 3 1011.2 1011.1 -
01/03:00am 19.9 21.4 17.7 87 1.4 NE 6 7 3 4 1011.8 1011.7 -
01/02:00am 19.5 21.9 17.1 86 1.5 CALM 0 0 0 0 1012.0 1011.9 0.0
01/01:30am 19.9 22.4 17.3 85 1.6 CALM 0 0 0 0 1011.9 1011.8 0.0
01/01:00am 19.8 22.1 17.6 87 1.4 N 2 6 1 3 1012.0 1011.9 0.0
01/12:30am 19.5 21.9 16.9 85 1.6 CALM 0 0 0 0 1012.3 1012.2 0.0
01/12:00am 20.4 21.5 17.2 82 2.0 N 7 11 4 6 1012.5 1012.4 0.0
 
Date/Time
EDT
Temp
°C
App
Temp
°C
Dew
Point
Rel
Hum
%
Delta-T
°C
Wind Press
QNH
hPa
Press
MSL
hPa
Rain
since 9 am
mm
Dir
 
Spd
km/h
Gust
km/h
Spd
kts
Gust
kts
31/11:30pm 21.0 22.1 18.0 83 1.9 NE 9 13 5 7 1012.6 1012.5 0.0
31/11:00pm 20.8 23.4 17.6 82 2.0 CALM 0 0 0 0 1012.8 1012.7 0.0
31/10:30pm 21.2 22.6 17.4 79 2.3 N 6 7 3 4 1013.0 1012.9 0.0
31/10:00pm 22.2 23.6 17.8 76 2.7 NE 7 11 4 6 1012.7 1012.6 0.0
31/09:30pm 22.7 23.9 18.3 76 2.8 NE 9 13 5 7 1012.5 1012.4 0.0
31/09:00pm 22.5 23.4 18.3 77 2.6 NNE 11 13 6 7 1012.5 1012.4 0.0
31/08:30pm 22.9 24.2 18.4 76 2.8 NE 9 13 5 7 1011.9 1011.8 0.0
31/08:00pm 23.3 24.2 18.4 74 3.1 ENE 11 17 6 9 1011.5 1011.4 0.0
31/07:30pm 23.6 24.5 18.3 72 3.3 ENE 11 15 6 8 1011.4 1011.3 0.0
31/07:00pm 24.2 24.2 18.2 69 3.8 ENE 15 26 8 14 1011.0 1010.9 0.0
31/06:30pm 24.8 25.4 17.8 65 4.4 ENE 11 19 6 10 1010.5 1010.4 0.0
31/06:00pm 25.9 24.6 17.3 59 5.4 NE 20 33 11 18 1010.4 1010.3 0.0
31/05:30pm 27.3 25.2 17.2 54 6.3 NE 24 37 13 20 1010.2 1010.1 0.0
31/05:00pm 28.3 26.0 17.5 52 6.8 NE 26 37 14 20 1010.0 1009.9 0.0
31/04:30pm 29.7 27.1 17.8 48 7.6 NE 28 39 15 21 1009.8 1009.7 0.0
31/04:00pm 31.3 29.7 18.3 46 8.4 NE 24 30 13 16 1010.0 1009.9 0.0
31/03:30pm 31.9 29.4 18.1 43 8.9 NE 28 35 15 19 1010.3 1010.2 0.0
31/03:00pm 32.5 30.5 17.5 40 9.6 NE 24 32 13 17 1010.6 1010.5 0.0
31/02:30pm 33.1 31.8 17.3 39 10.1 NNE 20 32 11 17 1011.1 1011.0 0.0
31/02:00pm 33.0 32.2 17.2 39 10.1 NNE 17 28 9 15 1011.7 1011.6 0.0
31/01:30pm 31.8 31.9 16.5 39 9.6 NNE 11 22 6 12 1012.4 1012.3 0.0
31/01:00pm 31.3 30.4 16.8 41 9.2 NNE 17 26 9 14 1013.0 1012.9 0.0
31/12:30pm 30.9 31.5 17.6 45 8.5 NNE 11 20 6 11 1013.7 1013.6 0.0
31/12:00pm 29.3 29.5 16.8 47 7.8 N 11 20 6 11 1014.3 1014.2 0.0
31/11:30am 28.5 29.0 17.4 51 7.0 NNE 11 19 6 10 1014.8 1014.7 0.0
31/11:00am 27.3 27.8 17.5 55 6.2 NNE 11 19 6 10 1015.3 1015.2 0.0
31/10:30am 25.7 25.4 16.5 56 5.7 N 13 19 7 10 1015.8 1015.7 0.0
31/10:00am 24.9 25.0 17.4 63 4.7 NNE 13 20 7 11 1015.9 1015.8 0.0
31/09:30am 23.2 24.5 17.0 68 3.8 N 6 11 3 6 1016.2 1016.1 0.0
31/09:00am 21.9 22.8 16.6 72 3.2 N 7 11 4 6 1016.4 1016.3 0.0
31/08:30am 19.9 20.8 16.5 81 2.0 N 7 11 4 6 1016.5 1016.4 0.0
31/08:00am 18.1 20.4 16.8 92 0.8 CALM 0 0 0 0 1016.3 1016.2 0.0
31/07:58am 17.9 20.2 16.8 93 0.7 CALM 0 6 0 3 1016.3 1016.2 0.0
31/07:30am 16.4 18.1 16.1 98 0.2 NW 2 6 1 3 1016.1 1016.0 0.0
31/07:00am 15.8 17.6 15.6 99 0.1 CALM 0 0 0 0 1016.0 1015.9 0.0
31/06:30am 15.0 16.5 14.7 98 0.2 CALM 0 0 0 0 1015.9 1015.8 0.0
31/06:00am 14.4 15.6 13.8 96 0.3 CALM 0 0 0 0 1015.4 1015.3 0.0
31/05:30am 14.3 15.4 13.5 95 0.4 CALM 0 0 0 0 1015.1 1015.0 0.0
31/05:17am 14.6 15.9 14.0 96 0.3 CALM 0 0 0 0 1015.0 1014.9 0.0
31/05:00am 14.6 15.7 13.5 93 0.6 CALM 0 0 0 0 1014.8 1014.7 0.0
31/04:54am 14.9 16.1 13.9 94 0.6 CALM 0 0 0 0 1014.8 1014.7 0.0
31/04:38am 14.9 16.1 13.9 94 0.6 CALM 0 0 0 0 1014.7 1014.6 0.0
31/04:30am 15.0 16.3 14.0 94 0.6 CALM 0 0 0 0 1014.8 1014.7 0.0
31/04:00am 15.5 16.7 14.9 96 0.3 ESE 2 6 1 3 1014.7 1014.6 0.0
31/03:30am 15.4 16.8 14.4 94 0.6 CALM 0 0 0 0 1014.7 1014.6 0.0
31/03:00am 16.1 16.7 15.3 95 0.5 SSW 6 9 3 5 1014.7 1014.6 0.0
31/02:30am 16.2 17.5 15.1 93 0.6 SSW 2 6 1 3 1014.8 1014.7 0.0
31/02:00am 16.5 16.9 15.2 92 0.8 S 7 9 4 5 1015.1 1015.0 0.0
31/01:30am 16.6 16.6 15.1 91 0.9 S 9 11 5 6 1015.5 1015.4 0.0
31/01:00am 16.7 17.5 14.9 89 1.0 SW 4 7 2 4 1015.7 1015.6 0.0
31/12:30am 17.2 18.9 15.2 88 1.2 CALM 0 0 0 0 1015.8 1015.7 0.0
31/12:00am 17.4 18.9 14.7 84 1.6 CALM 0 0 0 0 1016.0 1015.9 0.0
 
Date/Time
EDT
Temp
°C
App
Temp
°C
Dew
Point
Rel
Hum
%
Delta-T
°C
Wind Press
QNH
hPa
Press
MSL
hPa
Rain
since 9 am
mm
Dir
 
Spd
km/h
Gust
km/h
Spd
kts
Gust
kts
30/11:30pm 18.2 19.5 15.1 82 1.8 ENE 2 9 1 5 1016.0 1015.9 0.0
30/11:00pm 18.9 19.5 15.8 82 1.8 S 7 11 4 6 1016.1 1016.0 0.0
30/10:30pm 18.7 19.4 15.6 82 1.8 S 6 7 3 4 1015.8 1015.7 0.0
30/10:00pm 19.4 21.3 15.7 79 2.2 CALM 0 0 0 0 1015.7 1015.6 0.0
30/09:30pm 19.7 20.6 16.0 79 2.2 NNE 6 9 3 5 1015.5 1015.4 0.0
30/09:00pm 19.6 21.1 15.7 78 2.3 NNE 2 7 1 4 1015.4 1015.3 0.0
30/08:30pm 19.7 19.8 15.6 77 2.4 N 9 13 5 7 1015.0 1014.9 0.0
30/08:00pm 19.8 20.0 14.6 72 3.0 N 7 11 4 6 1014.6 1014.5 0.0
30/07:30pm 21.5 21.0 14.9 66 3.9 NE 11 15 6 8 1014.0 1013.9 0.0
30/07:00pm 22.4 20.6 14.5 61 4.7 NE 17 24 9 13 1013.5 1013.4 0.0
30/06:30pm 23.4 21.0 13.8 54 5.6 NE 19 26 10 14 1013.3 1013.2 0.0
30/06:00pm 24.8 21.8 12.7 47 7.0 NE 20 28 11 15 1013.0 1012.9 0.0
30/05:30pm 26.2 23.8 14.3 48 7.1 NE 20 30 11 16 1012.6 1012.5 0.0
30/05:00pm 26.8 23.2 13.2 43 8.0 ENE 24 32 13 17 1012.5 1012.4 0.0
30/04:30pm 27.9 25.8 15.2 46 7.7 NE 20 28 11 15 1012.5 1012.4 0.0
30/04:00pm 29.0 26.5 15.2 43 8.4 NE 22 32 12 17 1012.2 1012.1 0.0
30/03:30pm 29.4 27.0 15.5 43 8.6 ENE 22 32 12 17 1012.1 1012.0 0.0
30/03:00pm 30.2 27.5 14.7 39 9.5 NE 22 30 12 16 1012.2 1012.1 0.0
30/02:30pm 30.0 26.9 13.3 36 10.0 N 22 35 12 19 1012.5 1012.4 0.0
30/02:00pm 30.3 27.9 12.7 34 10.4 NNE 17 30 9 16 1013.3 1013.2 0.0
30/01:30pm 29.5 27.2 12.9 36 9.8 N 17 24 9 13 1014.1 1014.0 0.0
30/01:00pm 29.1 26.1 12.1 35 9.9 N 19 30 10 16 1014.7 1014.6 0.0
30/12:30pm 28.9 27.2 13.6 39 9.1 NNE 15 22 8 12 1015.1 1015.0 0.0
30/12:00pm 27.4 25.5 14.1 44 7.9 N 17 28 9 15 1015.9 1015.8 0.0
30/11:30am 26.6 25.3 13.7 45 7.6 NE 13 22 7 12 1016.4 1016.3 0.0
30/11:00am 25.6 24.3 13.8 48 7.0 N 13 22 7 12 1017.0 1016.9 0.0
30/10:30am 24.8 22.7 13.7 50 6.5 N 17 24 9 13 1017.4 1017.3 0.0
30/10:00am 23.7 22.5 14.1 55 5.6 N 13 20 7 11 1017.8 1017.7 0.0
30/09:30am 22.7 22.7 15.3 63 4.4 N 9 17 5 9 1018.1 1018.0 0.0
30/09:00am 20.7 21.2 15.0 70 3.4 NNE 6 9 3 5 1018.3 1018.2 0.0
30/08:30am 19.0 19.3 14.5 75 2.6 N 6 9 3 5 1018.3 1018.2 0.0
30/08:00am 17.0 18.4 14.5 85 1.4 CALM 0 0 0 0 1018.2 1018.1 0.0
30/07:30am 15.5 16.7 13.9 90 0.9 CALM 0 0 0 0 1018.1 1018.0 0.0
30/07:00am 14.0 15.0 13.2 95 0.4 CALM 0 0 0 0 1018.0 1017.9 0.0
30/06:30am 12.3 12.8 11.5 95 0.4 CALM 0 0 0 0 1017.7 1017.6 0.0
30/06:00am 12.4 12.9 11.6 95 0.4 CALM 0 0 0 0 1017.3 1017.2 0.0
30/05:30am 12.7 13.4 12.1 96 0.3 CALM 0 0 0 0 1017.3 1017.2 0.0
30/05:00am 12.4 12.9 11.6 95 0.4 CALM 0 0 0 0 1017.1 1017.0 0.0
30/04:30am 12.8 13.4 12.0 95 0.4 CALM 0 0 0 0 1017.0 1016.9 0.0
30/04:00am 12.7 13.2 11.6 93 0.6 CALM 0 0 0 0 1017.1 1017.0 0.0
30/03:30am 13.2 13.9 12.1 93 0.6 CALM 0 0 0 0 1017.1 1017.0 0.0
30/03:00am 13.5 14.2 12.2 92 0.7 CALM 0 0 0 0 1017.2 1017.1 0.0
30/02:30am 13.8 14.6 12.4 91 0.8 CALM 0 0 0 0 1017.4 1017.3 0.0
30/02:00am 14.2 15.0 12.4 89 1.0 CALM 0 7 0 4 1017.4 1017.3 0.0
30/01:30am 14.4 15.2 12.6 89 1.0 CALM 0 0 0 0 1017.8 1017.7 0.0
30/01:00am 14.7 14.4 12.7 88 1.1 SSW 6 7 3 4 1018.0 1017.9 0.0
30/12:30am 14.8 14.5 12.7 87 1.2 SSW 6 7 3 4 1018.3 1018.2 0.0
30/12:00am 14.7 14.2 12.0 84 1.5 SSW 6 7 3 4 1018.5 1018.4 0.0
 
Date/Time
EDT
Temp
°C
App
Temp
°C
Dew
Point
Rel
Hum
%
Delta-T
°C
Wind Press
QNH
hPa
Press
MSL
hPa
Rain
since 9 am
mm
Dir
 
Spd
km/h
Gust
km/h
Spd
kts
Gust
kts
29/11:30pm 15.3 15.4 12.8 85 1.4 SSW 4 9 2 5 1018.7 1018.6 0.0
29/11:00pm 15.4 16.2 12.5 83 1.6 CALM 0 0 0 0 1018.6 1018.5 0.0
29/10:30pm 16.0 16.8 12.6 80 1.9 CALM 0 0 0 0 1018.6 1018.5 0.0
29/10:00pm 16.7 17.5 12.7 77 2.2 CALM 0 0 0 0 1018.6 1018.5 0.0
29/09:30pm 17.4 17.0 12.5 73 2.7 S 6 7 3 4 1018.4 1018.3 0.0
29/09:00pm 18.2 17.8 12.9 71 3.0 S 7 9 4 5 1018.1 1018.0 0.0
29/08:30pm 18.8 18.4 12.5 67 3.5 SSE 6 9 3 5 1017.8 1017.7 0.0
29/08:00pm 20.1 19.8 12.6 62 4.2 SSE 6 9 3 5 1017.5 1017.4 0.0
29/07:30pm 20.8 20.3 12.5 59 4.7 SE 7 11 4 6 1017.2 1017.1 0.0
29/07:00pm 21.5 20.1 12.1 55 5.3 ESE 11 15 6 8 1016.8 1016.7 0.0
29/06:30pm 22.2 20.0 12.2 53 5.7 E 15 22 8 12 1016.4 1016.3 0.0
29/06:00pm 22.9 20.4 12.2 51 6.1 E 17 24 9 13 1016.0 1015.9 0.0
29/05:30pm 23.7 20.9 11.4 46 6.9 ESE 17 24 9 13 1015.4 1015.3 0.0
29/05:00pm 24.2 21.0 11.9 46 7.0 ESE 20 33 11 18 1015.1 1015.0 0.0
29/04:30pm 24.7 21.2 12.3 46 7.1 SE 22 32 12 17 1015.0 1014.9 0.0
29/04:00pm 25.3 21.8 12.2 44 7.5 ESE 22 33 12 18 1014.9 1014.8 0.0
29/03:30pm 26.0 22.7 12.8 44 7.7 E 22 33 12 18 1014.9 1014.8 0.0
29/03:00pm 26.5 23.0 12.2 41 8.2 E 22 33 12 18 1015.1 1015.0 0.0
29/02:30pm 27.0 24.4 10.7 36 9.2 E 15 33 8 18 1015.2 1015.1 0.0

Other Formats:

Comma delimited format used in spreadsheet applications
http://www.bom.gov.au/fwo/IDN60801/IDN60801.95570.axf

JavaScript Object Notation format (JSON) in row-major order
http://www.bom.gov.au/fwo/IDN60801/IDN60801.95570.json